Cudahy, WI (53110)

4:14 AM CDT on April 26, 2017 (GMT -0500)
E Layton Ave | | Change Station

Elev 696 ft 42.96 °N, 87.86 °W | Updated 16 seconds ago

Overcast
Overcast
54.5 °F
Feels Like 54.5 °F
N
6.3
Wind Variable Wind from SSW
Gusts 7.6 mph

Today
High -- | Low -- °F
--% Chance of Precip.
Yesterday
High -- | Low -- °F
Precip. -- in
Pressure 29.48 in
Visibility 10.0 miles
Clouds Few 10000 ft
Overcast 19000 ft
Dew Point 52 °F
Humidity 92%
Rainfall 0.00 in
Snow Depth Not available.
5:52 AM 7:46 PM
Waning Crescent, 0% visible
METAR KMKE 260852Z COR 15008KT 10SM FEW100 OVC190 15/11 A2948 RMK AO2 RAE0755 SLP983 P0000 60000 T01500111 56022
Pressure 29.48 in
Visibility 10.0 miles
Clouds Few 10000 ft
Overcast 19000 ft
Dew Point 52 °F
Humidity 92%
Rainfall 0.00 in
Snow Depth Not available.
5:52 AM 7:46 PM
Waning Crescent, 0% visible
METAR KMKE 260852Z COR 15008KT 10SM FEW100 OVC190 15/11 A2948 RMK AO2 RAE0755 SLP983 P0000 60000 T01500111 56022

Get Severe Weather Alerts

Thanks for signing up!

Be on the lookout for a verification email in your inbox.

You'll start receiving the daily forecast at 8 AM.

×

10-Day Weather Forecast

Almanac

Astronomy

Apr. 26, 2017 Rise Set
Actual Time
Civil Twilight
Nautical Twilight
Astronomical Twilight
Moon
Length of Visible Light
Length of Day
Tomorrow will be .
, % of the Moon is Illuminated

Today's Extremes

State Highs State Lows

Community

WunderPhotos

WunderBlog® & News

Nearby

Air Quality

  Air Quality AQ Index Pollutant
Not available.

Snow Depth

Station Depth Elevation

Earthquake Activity

City Distance Mag. Time & Date
Minimum magnitude displayed is 2.5.

Coastal Water Temperatures

Place Temperature

Stations

Nearby Weather Stations

Station Location Temp. Windchill Dew Point Humidity Wind Precip. Elev Updated Type
                   

Watches & Warnings

There are currently no watches in effect.